sensor_id;sensor_type;location;lat;lon;timestamp;pressure;altitude;pressure_sealevel;temperature;humidity
25610;BME280;13479;49.044;8.716;2023-05-02T04:01:25;99378.53;;;9.37;92.80
25610;BME280;13479;49.044;8.716;2023-05-02T04:03:51;99387.91;;;9.41;92.56
25610;BME280;13479;49.044;8.716;2023-05-02T04:06:16;99392.88;;;9.46;92.17
25610;BME280;13479;49.044;8.716;2023-05-02T04:08:41;99403.38;;;9.47;92.08
25610;BME280;13479;49.044;8.716;2023-05-02T04:11:07;99396.00;;;9.39;91.71
25610;BME280;13479;49.044;8.716;2023-05-02T04:13:32;99401.03;;;9.31;91.57
25610;BME280;13479;49.044;8.716;2023-05-02T04:15:57;99397.25;;;9.22;91.34
25610;BME280;13479;49.044;8.716;2023-05-02T04:18:23;99397.25;;;9.22;91.41
25610;BME280;13479;49.044;8.716;2023-05-02T04:20:49;99401.31;;;9.15;91.09
25610;BME280;13479;49.044;8.716;2023-05-02T04:23:14;99410.44;;;9.11;91.32
25610;BME280;13479;49.044;8.716;2023-05-02T04:25:39;99411.53;;;9.08;91.24
25610;BME280;13479;49.044;8.716;2023-05-02T04:28:05;99418.06;;;9.16;91.43
25610;BME280;13479;49.044;8.716;2023-05-02T04:30:30;99428.03;;;9.12;90.81
25610;BME280;13479;49.044;8.716;2023-05-02T04:32:55;99428.25;;;9.09;90.66
25610;BME280;13479;49.044;8.716;2023-05-02T04:35:21;99426.16;;;9.01;90.90
25610;BME280;13479;49.044;8.716;2023-05-02T04:37:46;99420.44;;;9.07;91.17
25610;BME280;13479;49.044;8.716;2023-05-02T04:40:11;99415.53;;;9.14;91.42
25610;BME280;13479;49.044;8.716;2023-05-02T04:42:37;99430.25;;;9.30;91.19
25610;BME280;13479;49.044;8.716;2023-05-02T04:45:02;99433.03;;;9.28;91.06
25610;BME280;13479;49.044;8.716;2023-05-02T04:47:28;99428.13;;;9.35;91.33
25610;BME280;13479;49.044;8.716;2023-05-02T04:49:53;99432.00;;;9.42;91.53
25610;BME280;13479;49.044;8.716;2023-05-02T04:52:18;99434.81;;;9.52;91.71
25610;BME280;13479;49.044;8.716;2023-05-02T04:54:43;99439.19;;;9.64;91.62
25610;BME280;13479;49.044;8.716;2023-05-02T04:57:09;99449.47;;;9.80;91.66
25610;BME280;13479;49.044;8.716;2023-05-02T04:59:34;99455.03;;;9.88;91.53
25610;BME280;13479;49.044;8.716;2023-05-02T05:01:59;99463.88;;;10.00;91.07
25610;BME280;13479;49.044;8.716;2023-05-02T05:04:25;99474.38;;;10.13;90.87
25610;BME280;13479;49.044;8.716;2023-05-02T05:06:50;99471.00;;;10.23;90.60
25610;BME280;13479;49.044;8.716;2023-05-02T05:09:15;99478.75;;;10.37;90.42
25610;BME280;13479;49.044;8.716;2023-05-02T05:11:41;99473.09;;;10.53;90.19
25610;BME280;13479;49.044;8.716;2023-05-02T05:14:10;99478.28;;;10.77;89.66
25610;BME280;13479;49.044;8.716;2023-05-02T05:16:35;99485.63;;;10.96;89.37
25610;BME280;13479;49.044;8.716;2023-05-02T05:19:01;99479.78;;;11.25;88.94
25610;BME280;13479;49.044;8.716;2023-05-02T05:21:26;99480.53;;;11.49;88.52
25610;BME280;13479;49.044;8.716;2023-05-02T05:23:52;99483.28;;;11.58;87.42
25610;BME280;13479;49.044;8.716;2023-05-02T05:26:17;99486.00;;;11.68;86.03
25610;BME280;13479;49.044;8.716;2023-05-02T05:28:43;99468.75;;;11.84;86.05
25610;BME280;13479;49.044;8.716;2023-05-02T05:31:13;99465.06;;;11.96;85.21
25610;BME280;13479;49.044;8.716;2023-05-02T05:33:41;99452.69;;;12.07;84.73
25610;BME280;13479;49.044;8.716;2023-05-02T05:36:10;99457.47;;;12.13;84.05
25610;BME280;13479;49.044;8.716;2023-05-02T05:38:36;99456.09;;;12.18;83.08
25610;BME280;13479;49.044;8.716;2023-05-02T05:41:02;99460.94;;;12.34;82.33
25610;BME280;13479;49.044;8.716;2023-05-02T05:43:29;99462.69;;;12.45;81.64
25610;BME280;13479;49.044;8.716;2023-05-02T05:45:54;99456.84;;;12.61;80.91
25610;BME280;13479;49.044;8.716;2023-05-02T05:48:20;99483.28;;;12.84;78.81
25610;BME280;13479;49.044;8.716;2023-05-02T05:50:46;99455.63;;;12.75;78.40
25610;BME280;13479;49.044;8.716;2023-05-02T05:53:12;99454.97;;;12.83;77.78
25610;BME280;13479;49.044;8.716;2023-05-02T05:55:38;99429.72;;;12.87;78.20
25610;BME280;13479;49.044;8.716;2023-05-02T05:58:04;99416.28;;;12.98;78.08
25610;BME280;13479;49.044;8.716;2023-05-02T06:00:30;99419.66;;;13.10;77.74
25610;BME280;13479;49.044;8.716;2023-05-02T06:02:56;99434.28;;;13.26;76.71
25610;BME280;13479;49.044;8.716;2023-05-02T06:05:21;99457.03;;;13.40;75.63
25610;BME280;13479;49.044;8.716;2023-05-02T06:07:46;99470.09;;;13.63;73.57
25610;BME280;13479;49.044;8.716;2023-05-02T06:10:12;99445.50;;;13.69;73.94
25610;BME280;13479;49.044;8.716;2023-05-02T06:12:37;99455.63;;;13.75;72.71
25610;BME280;13479;49.044;8.716;2023-05-02T06:15:02;99443.22;;;13.94;72.19
25610;BME280;13479;49.044;8.716;2023-05-02T06:17:28;99455.03;;;14.01;71.76
25610;BME280;13479;49.044;8.716;2023-05-02T06:19:53;99450.50;;;14.11;71.37
25610;BME280;13479;49.044;8.716;2023-05-02T06:22:18;99439.78;;;14.21;70.30
25610;BME280;13479;49.044;8.716;2023-05-02T06:24:43;99443.69;;;14.27;69.47
25610;BME280;13479;49.044;8.716;2023-05-02T06:27:09;99448.81;;;14.48;68.92
25610;BME280;13479;49.044;8.716;2023-05-02T06:29:34;99443.44;;;14.58;68.58
25610;BME280;13479;49.044;8.716;2023-05-02T06:32:00;99428.50;;;14.65;68.62
25610;BME280;13479;49.044;8.716;2023-05-02T06:34:25;99429.47;;;14.64;68.21
25610;BME280;13479;49.044;8.716;2023-05-02T06:36:54;99451.63;;;14.84;66.99
25610;BME280;13479;49.044;8.716;2023-05-02T06:39:20;99427.78;;;14.73;67.25
25610;BME280;13479;49.044;8.716;2023-05-02T06:41:46;99430.00;;;14.77;67.37
25610;BME280;13479;49.044;8.716;2023-05-02T06:44:12;99426.63;;;14.75;67.42
25610;BME280;13479;49.044;8.716;2023-05-02T06:46:37;99437.28;;;14.85;66.98
25610;BME280;13479;49.044;8.716;2023-05-02T06:49:03;99456.28;;;14.82;66.88
25610;BME280;13479;49.044;8.716;2023-05-02T06:51:28;99444.34;;;14.76;67.10
25610;BME280;13479;49.044;8.716;2023-05-02T06:53:53;99465.75;;;14.76;66.57
25610;BME280;13479;49.044;8.716;2023-05-02T06:56:18;99471.88;;;14.87;65.51
25610;BME280;13479;49.044;8.716;2023-05-02T06:58:44;99469.91;;;14.89;65.60
25610;BME280;13479;49.044;8.716;2023-05-02T07:01:09;99476.28;;;15.06;64.57
25610;BME280;13479;49.044;8.716;2023-05-02T07:03:34;99492.44;;;15.32;63.91
25610;BME280;13479;49.044;8.716;2023-05-02T07:06:00;99484.47;;;15.40;63.61
25610;BME280;13479;49.044;8.716;2023-05-02T07:08:25;99478.13;;;15.59;62.89
25610;BME280;13479;49.044;8.716;2023-05-02T07:10:50;99490.53;;;15.60;61.79
25610;BME280;13479;49.044;8.716;2023-05-02T07:13:15;99477.31;;;15.59;61.81
25610;BME280;13479;49.044;8.716;2023-05-02T07:15:41;99486.00;;;15.61;61.17
25610;BME280;13479;49.044;8.716;2023-05-02T07:18:07;99486.31;;;15.58;60.94
25610;BME280;13479;49.044;8.716;2023-05-02T07:20:32;99444.75;;;15.46;61.96
25610;BME280;13479;49.044;8.716;2023-05-02T07:22:57;99417.00;;;15.47;62.10
25610;BME280;13479;49.044;8.716;2023-05-02T07:25:22;99442.72;;;15.66;61.88
25610;BME280;13479;49.044;8.716;2023-05-02T07:27:48;99463.13;;;15.85;61.51
25610;BME280;13479;49.044;8.716;2023-05-02T07:30:13;99493.69;;;16.18;60.10
25610;BME280;13479;49.044;8.716;2023-05-02T07:32:38;99502.53;;;16.72;59.10
25610;BME280;13479;49.044;8.716;2023-05-02T07:35:04;99499.75;;;17.33;57.69
25610;BME280;13479;49.044;8.716;2023-05-02T07:37:33;99516.00;;;18.63;54.98
25610;BME280;13479;49.044;8.716;2023-05-02T07:39:59;99517.88;;;20.80;50.62
25610;BME280;13479;49.044;8.716;2023-05-02T07:42:29;99528.53;;;22.84;44.99
25610;BME280;13479;49.044;8.716;2023-05-02T07:44:54;99535.16;;;24.46;40.98
25610;BME280;13479;49.044;8.716;2023-05-02T07:47:19;99538.78;;;25.57;37.22
25610;BME280;13479;49.044;8.716;2023-05-02T07:49:49;99554.25;;;26.65;35.00
25610;BME280;13479;49.044;8.716;2023-05-02T07:52:15;99575.78;;;27.78;33.21
25610;BME280;13479;49.044;8.716;2023-05-02T07:54:40;99582.25;;;28.74;31.59
25610;BME280;13479;49.044;8.716;2023-05-02T07:57:06;99585.84;;;29.27;30.57
25610;BME280;13479;49.044;8.716;2023-05-02T07:59:32;99597.88;;;30.30;29.27
25610;BME280;13479;49.044;8.716;2023-05-02T08:01:58;99612.78;;;30.90;27.44
25610;BME280;13479;49.044;8.716;2023-05-02T08:04:23;99623.72;;;30.68;27.65
25610;BME280;13479;49.044;8.716;2023-05-02T08:06:49;99641.09;;;29.82;28.06
25610;BME280;13479;49.044;8.716;2023-05-02T08:09:14;99638.16;;;28.71;29.44
25610;BME280;13479;49.044;8.716;2023-05-02T08:11:39;99638.63;;;27.53;31.66
25610;BME280;13479;49.044;8.716;2023-05-02T08:14:04;99621.38;;;26.52;33.02
25610;BME280;13479;49.044;8.716;2023-05-02T08:16:30;99618.44;;;25.97;34.19
25610;BME280;13479;49.044;8.716;2023-05-02T08:18:55;99604.31;;;25.81;34.63
25610;BME280;13479;49.044;8.716;2023-05-02T08:21:21;99591.56;;;25.75;35.13
25610;BME280;13479;49.044;8.716;2023-05-02T08:23:47;99589.59;;;25.50;35.17
25610;BME280;13479;49.044;8.716;2023-05-02T08:26:12;99571.06;;;25.79;34.97
25610;BME280;13479;49.044;8.716;2023-05-02T08:28:37;99574.84;;;26.61;33.83
25610;BME280;13479;49.044;8.716;2023-05-02T08:31:02;99595.53;;;27.43;32.62
25610;BME280;13479;49.044;8.716;2023-05-02T08:33:28;99604.91;;;27.96;32.23
25610;BME280;13479;49.044;8.716;2023-05-02T08:35:53;99622.00;;;28.34;31.40
25610;BME280;13479;49.044;8.716;2023-05-02T08:38:18;99629.25;;;29.00;29.86
25610;BME280;13479;49.044;8.716;2023-05-02T08:40:44;99623.13;;;29.45;29.57
25610;BME280;13479;49.044;8.716;2023-05-02T08:43:10;99644.44;;;30.30;28.93
25610;BME280;13479;49.044;8.716;2023-05-02T08:45:40;99648.03;;;30.64;28.44
25610;BME280;13479;49.044;8.716;2023-05-02T08:48:08;99647.06;;;30.54;27.71
25610;BME280;13479;49.044;8.716;2023-05-02T08:50:40;99640.38;;;30.49;28.03
25610;BME280;13479;49.044;8.716;2023-05-02T08:53:08;99649.41;;;31.01;28.09
25610;BME280;13479;49.044;8.716;2023-05-02T08:55:35;99642.31;;;31.22;27.17
25610;BME280;13479;49.044;8.716;2023-05-02T08:58:04;99653.66;;;32.25;26.37
25610;BME280;13479;49.044;8.716;2023-05-02T09:00:29;99653.09;;;32.01;25.43
25610;BME280;13479;49.044;8.716;2023-05-02T09:03:22;99653.69;;;32.30;25.76
25610;BME280;13479;49.044;8.716;2023-05-02T09:05:52;99658.94;;;33.07;25.39
25610;BME280;13479;49.044;8.716;2023-05-02T09:08:22;99665.06;;;33.25;24.54
25610;BME280;13479;49.044;8.716;2023-05-02T09:10:48;99660.63;;;33.14;24.69
25610;BME280;13479;49.044;8.716;2023-05-02T09:16:12;99666.94;;;32.39;25.31
25610;BME280;13479;49.044;8.716;2023-05-02T09:18:45;99667.72;;;32.07;25.80
25610;BME280;13479;49.044;8.716;2023-05-02T09:21:16;99662.25;;;32.72;24.69
25610;BME280;13479;49.044;8.716;2023-05-02T09:24:00;99652.13;;;33.20;24.14
25610;BME280;13479;49.044;8.716;2023-05-02T09:26:27;99653.34;;;32.54;24.15
25610;BME280;13479;49.044;8.716;2023-05-02T09:29:01;99656.94;;;31.72;26.01
25610;BME280;13479;49.044;8.716;2023-05-02T09:31:31;99646.91;;;32.76;25.45
25610;BME280;13479;49.044;8.716;2023-05-02T09:34:10;99654.25;;;32.32;25.24
25610;BME280;13479;49.044;8.716;2023-05-02T09:36:39;99657.03;;;32.38;25.69
25610;BME280;13479;49.044;8.716;2023-05-02T09:39:10;99649.19;;;31.92;25.83
25610;BME280;13479;49.044;8.716;2023-05-02T09:41:39;99651.53;;;30.60;26.84
25610;BME280;13479;49.044;8.716;2023-05-02T09:44:08;99642.06;;;29.47;27.92
25610;BME280;13479;49.044;8.716;2023-05-02T09:46:39;99638.97;;;29.43;28.93
25610;BME280;13479;49.044;8.716;2023-05-02T09:49:05;99623.44;;;30.18;27.63
25610;BME280;13479;49.044;8.716;2023-05-02T09:51:31;99621.41;;;31.16;26.03
25610;BME280;13479;49.044;8.716;2023-05-02T09:53:56;99628.91;;;31.70;25.06
25610;BME280;13479;49.044;8.716;2023-05-02T09:56:21;99639.09;;;32.57;24.43
25610;BME280;13479;49.044;8.716;2023-05-02T09:58:47;99642.44;;;33.66;22.93
25610;BME280;13479;49.044;8.716;2023-05-02T10:01:18;99654.03;;;33.78;22.50
25610;BME280;13479;49.044;8.716;2023-05-02T10:03:47;99657.16;;;32.48;22.83
25610;BME280;13479;49.044;8.716;2023-05-02T10:06:14;99665.84;;;31.85;23.85
25610;BME280;13479;49.044;8.716;2023-05-02T10:08:40;99659.31;;;30.34;25.74
25610;BME280;13479;49.044;8.716;2023-05-02T10:11:07;99655.63;;;29.30;27.71
25610;BME280;13479;49.044;8.716;2023-05-02T10:13:33;99659.59;;;28.32;28.89
25610;BME280;13479;49.044;8.716;2023-05-02T10:16:04;99649.94;;;27.56;30.03
25610;BME280;13479;49.044;8.716;2023-05-02T10:21:25;99625.88;;;25.76;31.60
25610;BME280;13479;49.044;8.716;2023-05-02T10:23:54;99633.22;;;25.03;33.99
25610;BME280;13479;49.044;8.716;2023-05-02T10:26:19;99631.81;;;24.47;34.43
25610;BME280;13479;49.044;8.716;2023-05-02T10:28:46;99627.28;;;23.72;36.34
25610;BME280;13479;49.044;8.716;2023-05-02T10:31:13;99632.53;;;23.25;36.76
25610;BME280;13479;49.044;8.716;2023-05-02T10:33:38;99625.78;;;22.86;37.72
25610;BME280;13479;49.044;8.716;2023-05-02T10:36:04;99626.22;;;22.39;38.52
25610;BME280;13479;49.044;8.716;2023-05-02T10:38:31;99615.56;;;22.09;39.32
25610;BME280;13479;49.044;8.716;2023-05-02T10:41:00;99616.72;;;22.00;39.87
25610;BME280;13479;49.044;8.716;2023-05-02T10:43:29;99603.16;;;21.93;39.52
25610;BME280;13479;49.044;8.716;2023-05-02T10:45:55;99588.78;;;22.14;39.36
25610;BME280;13479;49.044;8.716;2023-05-02T10:48:22;99595.19;;;22.13;40.21
25610;BME280;13479;49.044;8.716;2023-05-02T10:50:54;99597.97;;;21.77;41.06
25610;BME280;13479;49.044;8.716;2023-05-02T10:53:28;99600.00;;;21.38;42.01
25610;BME280;13479;49.044;8.716;2023-05-02T10:56:16;99588.38;;;21.07;41.89
25610;BME280;13479;49.044;8.716;2023-05-02T10:58:43;99576.63;;;20.70;42.44
25610;BME280;13479;49.044;8.716;2023-05-02T11:06:22;99572.72;;;20.58;44.02
25610;BME280;13479;49.044;8.716;2023-05-02T11:08:48;99575.75;;;20.93;43.10
25610;BME280;13479;49.044;8.716;2023-05-02T11:11:39;99566.13;;;21.20;41.54
25610;BME280;13479;49.044;8.716;2023-05-02T11:14:05;99552.81;;;21.70;41.99
25610;BME280;13479;49.044;8.716;2023-05-02T11:24:44;99597.97;;;22.70;37.76
25610;BME280;13479;49.044;8.716;2023-05-02T11:30:00;99610.44;;;22.64;37.85
25610;BME280;13479;49.044;8.716;2023-05-02T11:35:22;99568.88;;;22.22;40.85
25610;BME280;13479;49.044;8.716;2023-05-02T11:40:19;99567.88;;;22.01;40.63
25610;BME280;13479;49.044;8.716;2023-05-02T11:42:44;99550.28;;;21.90;41.06
25610;BME280;13479;49.044;8.716;2023-05-02T11:45:10;99552.03;;;21.98;40.72
25610;BME280;13479;49.044;8.716;2023-05-02T11:47:35;99569.47;;;21.96;39.54
25610;BME280;13479;49.044;8.716;2023-05-02T11:50:04;99556.59;;;21.98;39.92
25610;BME280;13479;49.044;8.716;2023-05-02T11:52:29;99541.66;;;22.02;41.36
25610;BME280;13479;49.044;8.716;2023-05-02T11:54:56;99552.69;;;22.00;40.39
25610;BME280;13479;49.044;8.716;2023-05-02T11:57:21;99562.41;;;21.95;40.00
25610;BME280;13479;49.044;8.716;2023-05-02T11:59:56;99579.38;;;21.67;40.13
25610;BME280;13479;49.044;8.716;2023-05-02T12:02:38;99555.78;;;21.24;41.27
25610;BME280;13479;49.044;8.716;2023-05-02T12:05:06;99550.72;;;20.84;42.66
25610;BME280;13479;49.044;8.716;2023-05-02T12:07:42;99551.69;;;20.53;43.11
25610;BME280;13479;49.044;8.716;2023-05-02T12:10:13;99545.88;;;20.26;44.14
25610;BME280;13479;49.044;8.716;2023-05-02T12:12:40;99545.66;;;20.13;42.75
25610;BME280;13479;49.044;8.716;2023-05-02T12:15:07;99556.88;;;20.01;42.15
25610;BME280;13479;49.044;8.716;2023-05-02T12:17:36;99548.38;;;19.89;43.11
25610;BME280;13479;49.044;8.716;2023-05-02T12:20:03;99551.94;;;19.82;40.42
25610;BME280;13479;49.044;8.716;2023-05-02T12:22:29;99545.22;;;19.86;42.49
25610;BME280;13479;49.044;8.716;2023-05-02T12:24:55;99548.50;;;19.96;43.05
25610;BME280;13479;49.044;8.716;2023-05-02T12:27:20;99534.31;;;20.17;44.25
25610;BME280;13479;49.044;8.716;2023-05-02T12:29:46;99537.16;;;20.39;44.20
25610;BME280;13479;49.044;8.716;2023-05-02T12:32:13;99563.78;;;20.57;41.25
25610;BME280;13479;49.044;8.716;2023-05-02T12:34:39;99563.66;;;20.50;41.56
25610;BME280;13479;49.044;8.716;2023-05-02T12:37:06;99579.69;;;20.52;41.82
25610;BME280;13479;49.044;8.716;2023-05-02T12:39:38;99557.72;;;20.55;43.39
25610;BME280;13479;49.044;8.716;2023-05-02T12:42:15;99563.72;;;20.65;41.69
25610;BME280;13479;49.044;8.716;2023-05-02T12:44:45;99562.31;;;20.85;42.40
25610;BME280;13479;49.044;8.716;2023-05-02T12:47:12;99541.78;;;20.98;43.17
25610;BME280;13479;49.044;8.716;2023-05-02T12:49:51;99542.97;;;21.11;43.28
25610;BME280;13479;49.044;8.716;2023-05-02T12:52:18;99554.13;;;21.23;41.17
25610;BME280;13479;49.044;8.716;2023-05-02T12:54:43;99558.56;;;21.31;42.56
25610;BME280;13479;49.044;8.716;2023-05-02T12:57:09;99571.38;;;21.43;41.13
25610;BME280;13479;49.044;8.716;2023-05-02T12:59:45;99597.22;;;21.16;40.09
25610;BME280;13479;49.044;8.716;2023-05-02T13:02:10;99582.53;;;21.04;40.27
25610;BME280;13479;49.044;8.716;2023-05-02T13:04:36;99584.31;;;20.96;40.22
25610;BME280;13479;49.044;8.716;2023-05-02T13:07:03;99579.00;;;20.88;40.90
25610;BME280;13479;49.044;8.716;2023-05-02T13:09:28;99581.19;;;20.70;41.82
25610;BME280;13479;49.044;8.716;2023-05-02T13:11:53;99586.22;;;20.73;41.62
25610;BME280;13479;49.044;8.716;2023-05-02T13:14:19;99562.38;;;20.61;41.61
25610;BME280;13479;49.044;8.716;2023-05-02T13:16:44;99575.13;;;20.52;40.78
25610;BME280;13479;49.044;8.716;2023-05-02T13:19:09;99564.63;;;20.43;42.06
25610;BME280;13479;49.044;8.716;2023-05-02T13:21:34;99538.81;;;20.40;43.45
25610;BME280;13479;49.044;8.716;2023-05-02T13:24:00;99532.41;;;20.41;42.50
25610;BME280;13479;49.044;8.716;2023-05-02T13:26:28;99553.66;;;20.21;41.49
25610;BME280;13479;49.044;8.716;2023-05-02T13:28:53;99560.22;;;20.03;41.18
25610;BME280;13479;49.044;8.716;2023-05-02T13:31:18;99555.53;;;19.74;41.51
25610;BME280;13479;49.044;8.716;2023-05-02T13:33:43;99550.88;;;19.91;42.05
25610;BME280;13479;49.044;8.716;2023-05-02T13:36:09;99532.84;;;19.68;42.84
25610;BME280;13479;49.044;8.716;2023-05-02T13:38:34;99525.72;;;19.75;42.59
25610;BME280;13479;49.044;8.716;2023-05-02T13:40:59;99523.19;;;19.51;42.83
25610;BME280;13479;49.044;8.716;2023-05-02T13:43:25;99525.09;;;19.65;43.07
25610;BME280;13479;49.044;8.716;2023-05-02T13:45:50;99511.16;;;19.62;43.13
25610;BME280;13479;49.044;8.716;2023-05-02T13:48:16;99510.56;;;19.51;42.83
25610;BME280;13479;49.044;8.716;2023-05-02T13:50:41;99527.13;;;19.40;41.63
25610;BME280;13479;49.044;8.716;2023-05-02T13:53:06;99513.19;;;19.59;43.33
25610;BME280;13479;49.044;8.716;2023-05-02T13:55:32;99505.50;;;19.56;43.10
25610;BME280;13479;49.044;8.716;2023-05-02T13:57:57;99521.03;;;19.69;41.55
25610;BME280;13479;49.044;8.716;2023-05-02T14:00:22;99531.53;;;19.64;41.32
25610;BME280;13479;49.044;8.716;2023-05-02T14:02:47;99536.72;;;19.66;42.59
25610;BME280;13479;49.044;8.716;2023-05-02T14:05:13;99542.34;;;19.56;42.07
25610;BME280;13479;49.044;8.716;2023-05-02T14:07:39;99542.00;;;19.59;41.41
25610;BME280;13479;49.044;8.716;2023-05-02T14:10:05;99546.56;;;19.58;41.86
25610;BME280;13479;49.044;8.716;2023-05-02T14:12:30;99549.53;;;19.64;41.65
25610;BME280;13479;49.044;8.716;2023-05-02T14:14:56;99563.28;;;20.00;40.58
25610;BME280;13479;49.044;8.716;2023-05-02T14:17:21;99555.66;;;19.81;42.13
25610;BME280;13479;49.044;8.716;2023-05-02T14:19:49;99561.19;;;19.87;42.28
25610;BME280;13479;49.044;8.716;2023-05-02T14:22:14;99583.91;;;19.85;37.44
25610;BME280;13479;49.044;8.716;2023-05-02T14:24:40;99572.88;;;19.71;38.12
25610;BME280;13479;49.044;8.716;2023-05-02T14:27:05;99576.59;;;19.70;38.20
25610;BME280;13479;49.044;8.716;2023-05-02T14:29:31;99570.19;;;19.71;40.31
25610;BME280;13479;49.044;8.716;2023-05-02T14:31:56;99561.69;;;19.83;39.89
25610;BME280;13479;49.044;8.716;2023-05-02T14:34:22;99546.19;;;19.85;40.54
25610;BME280;13479;49.044;8.716;2023-05-02T14:36:50;99554.16;;;19.78;40.76
25610;BME280;13479;49.044;8.716;2023-05-02T14:39:16;99553.97;;;19.80;40.59
25610;BME280;13479;49.044;8.716;2023-05-02T14:41:41;99542.13;;;19.89;40.29
25610;BME280;13479;49.044;8.716;2023-05-02T14:44:06;99538.81;;;19.87;39.47
25610;BME280;13479;49.044;8.716;2023-05-02T14:46:32;99567.91;;;19.83;38.72
25610;BME280;13479;49.044;8.716;2023-05-02T14:48:57;99584.00;;;19.68;37.97
25610;BME280;13479;49.044;8.716;2023-05-02T14:51:22;99596.47;;;19.69;37.88
25610;BME280;13479;49.044;8.716;2023-05-02T14:53:47;99585.44;;;19.56;38.99
25610;BME280;13479;49.044;8.716;2023-05-02T14:56:13;99566.97;;;19.44;40.20
25610;BME280;13479;49.044;8.716;2023-05-02T14:58:41;99589.84;;;19.49;36.43
25610;BME280;13479;49.044;8.716;2023-05-02T15:01:14;99572.69;;;19.50;37.98
25610;BME280;13479;49.044;8.716;2023-05-02T15:03:39;99593.91;;;19.44;37.09
25610;BME280;13479;49.044;8.716;2023-05-02T15:06:05;99599.41;;;19.51;37.42
25610;BME280;13479;49.044;8.716;2023-05-02T15:08:31;99595.59;;;19.45;37.72
25610;BME280;13479;49.044;8.716;2023-05-02T15:10:56;99586.34;;;19.40;37.86
25610;BME280;13479;49.044;8.716;2023-05-02T15:13:22;99576.84;;;19.29;39.36
25610;BME280;13479;49.044;8.716;2023-05-02T15:15:47;99563.19;;;19.31;40.22
25610;BME280;13479;49.044;8.716;2023-05-02T15:18:13;99556.25;;;19.36;39.41
25610;BME280;13479;49.044;8.716;2023-05-02T15:20:38;99564.69;;;19.33;38.91
25610;BME280;13479;49.044;8.716;2023-05-02T15:23:03;99581.81;;;19.40;37.01
25610;BME280;13479;49.044;8.716;2023-05-02T15:25:28;99590.28;;;19.29;36.89
25610;BME280;13479;49.044;8.716;2023-05-02T15:27:54;99583.91;;;19.22;38.23
25610;BME280;13479;49.044;8.716;2023-05-02T15:30:20;99575.53;;;19.17;38.96
25610;BME280;13479;49.044;8.716;2023-05-02T15:32:45;99564.38;;;19.28;38.71
25610;BME280;13479;49.044;8.716;2023-05-02T15:35:10;99558.38;;;19.18;39.85
25610;BME280;13479;49.044;8.716;2023-05-02T15:37:36;99558.69;;;19.23;39.02
25610;BME280;13479;49.044;8.716;2023-05-02T15:40:02;99539.66;;;19.56;38.78
25610;BME280;13479;49.044;8.716;2023-05-02T15:42:27;99578.41;;;19.47;36.74
25610;BME280;13479;49.044;8.716;2023-05-02T15:44:53;99577.44;;;19.39;37.58
25610;BME280;13479;49.044;8.716;2023-05-02T15:47:18;99592.13;;;19.28;37.68
25610;BME280;13479;49.044;8.716;2023-05-02T15:49:43;99601.06;;;19.29;37.48
25610;BME280;13479;49.044;8.716;2023-05-02T15:52:09;99607.84;;;19.17;37.05
25610;BME280;13479;49.044;8.716;2023-05-02T15:54:34;99610.00;;;19.21;37.32
25610;BME280;13479;49.044;8.716;2023-05-02T15:56:59;99622.38;;;19.39;35.75
25610;BME280;13479;49.044;8.716;2023-05-02T15:59:26;99616.22;;;19.22;36.29
25610;BME280;13479;49.044;8.716;2023-05-02T16:01:52;99612.22;;;19.18;36.76
25610;BME280;13479;49.044;8.716;2023-05-02T16:04:17;99621.97;;;19.10;36.14
25610;BME280;13479;49.044;8.716;2023-05-02T16:06:42;99619.50;;;19.01;36.85
25610;BME280;13479;49.044;8.716;2023-05-02T16:09:08;99602.78;;;19.13;37.20
25610;BME280;13479;49.044;8.716;2023-05-02T16:11:34;99593.59;;;18.91;38.07
25610;BME280;13479;49.044;8.716;2023-05-02T16:13:59;99588.19;;;19.08;37.69
25610;BME280;13479;49.044;8.716;2023-05-02T16:16:26;99586.19;;;19.02;37.77
25610;BME280;13479;49.044;8.716;2023-05-02T16:18:52;99595.44;;;18.99;37.21
25610;BME280;13479;49.044;8.716;2023-05-02T16:21:17;99577.81;;;18.80;39.58
25610;BME280;13479;49.044;8.716;2023-05-02T16:23:42;99574.31;;;18.71;40.48
25610;BME280;13479;49.044;8.716;2023-05-02T16:26:08;99570.44;;;18.74;40.30
25610;BME280;13479;49.044;8.716;2023-05-02T16:28:34;99563.56;;;18.55;40.78
25610;BME280;13479;49.044;8.716;2023-05-02T16:31:04;99552.84;;;18.46;41.46
25610;BME280;13479;49.044;8.716;2023-05-02T16:33:30;99554.69;;;18.54;41.44
25610;BME280;13479;49.044;8.716;2023-05-02T16:35:59;99550.81;;;18.48;41.79
25610;BME280;13479;49.044;8.716;2023-05-02T16:38:25;99553.88;;;18.37;42.07
25610;BME280;13479;49.044;8.716;2023-05-02T16:40:51;99555.56;;;18.38;41.07
25610;BME280;13479;49.044;8.716;2023-05-02T16:43:16;99554.69;;;18.37;41.33
25610;BME280;13479;49.044;8.716;2023-05-02T16:45:41;99550.88;;;18.15;41.55
25610;BME280;13479;49.044;8.716;2023-05-02T16:48:07;99555.06;;;18.18;42.17
25610;BME280;13479;49.044;8.716;2023-05-02T16:50:32;99563.59;;;18.30;40.77
25610;BME280;13479;49.044;8.716;2023-05-02T16:52:57;99569.00;;;18.21;41.33
25610;BME280;13479;49.044;8.716;2023-05-02T16:55:22;99575.38;;;18.20;40.84
25610;BME280;13479;49.044;8.716;2023-05-02T16:57:48;99574.03;;;18.16;41.16
25610;BME280;13479;49.044;8.716;2023-05-02T17:00:13;99586.81;;;18.14;40.54
25610;BME280;13479;49.044;8.716;2023-05-02T17:02:39;99599.38;;;17.97;40.17
25610;BME280;13479;49.044;8.716;2023-05-02T17:05:05;99586.78;;;17.98;40.82
25610;BME280;13479;49.044;8.716;2023-05-02T17:07:30;99595.88;;;18.05;39.98
25610;BME280;13479;49.044;8.716;2023-05-02T17:09:55;99596.19;;;18.02;39.80
25610;BME280;13479;49.044;8.716;2023-05-02T17:12:21;99617.34;;;17.97;39.58
25610;BME280;13479;49.044;8.716;2023-05-02T17:14:47;99613.94;;;17.86;40.15
25610;BME280;13479;49.044;8.716;2023-05-02T17:17:13;99626.34;;;17.87;39.73
25610;BME280;13479;49.044;8.716;2023-05-02T17:19:38;99623.66;;;17.79;39.80
25610;BME280;13479;49.044;8.716;2023-05-02T17:22:03;99608.69;;;17.68;40.79
25610;BME280;13479;49.044;8.716;2023-05-02T17:24:29;99614.56;;;17.64;40.32